CheckWX is a tool to help pilots better visualize weather data.  It is not intended as a substitute for an official pre-flight weather briefing.

17:48:13 UTC

GVAC TAF
Amílcar Cabral International Airport
Espargos, Cape Verde
TAF GVAC 271700Z 2718/2824 05016KT CAVOK PROB40 2800/2808 05006KT 8000 NSC

Jan-27@
18:00 UTC

Jan-27 @ 18:00 UTC

Jan-29@
00:00 UTC

Jan-29 @ 00:00 UTC

TAF GVAC 271700Z 2718/2824 05016KT CAVOK
Wind
  • 050° at 16 KTS
Conditions
No significant weather
Cloud Levels
  • No significant clouds

Jan-28@
00:00 UTC

Jan-28 @ 00:00 UTC

Jan-28@
08:00 UTC

Jan-28 @ 08:00 UTC

PROB40 2800/2808 05006KT 8000 NSC

Probable - 40% Likelihood

Probable - 40% Likelihood during this time.

Wind
  • 050° at 6 KTS
Cloud Levels
  • No significant clouds